createdAt,value
2022-08-17T00:00:52.093Z,4.78
2022-08-17T00:03:26.659Z,5.30
2022-08-17T00:06:01.542Z,4.57
2022-08-17T00:08:34.780Z,6.93
2022-08-17T00:11:08.276Z,6.55
2022-08-17T00:13:41.119Z,7.90
2022-08-17T00:16:19.959Z,5.70
2022-08-17T00:19:01.912Z,5.30
2022-08-17T00:22:34.726Z,8.55
2022-08-17T00:24:32.351Z,7.15
2022-08-17T00:27:03.713Z,5.97
2022-08-17T00:29:34.826Z,6.68
2022-08-17T00:33:22.800Z,7.45
2022-08-17T00:35:00.338Z,7.18
2022-08-17T00:37:31.502Z,6.28
2022-08-17T00:40:02.429Z,8.15
2022-08-17T00:42:33.638Z,6.90
2022-08-17T00:45:04.763Z,5.60
2022-08-17T00:47:38.493Z,7.55
2022-08-17T00:50:11.456Z,7.07
2022-08-17T00:52:48.687Z,6.55
2022-08-17T00:55:19.607Z,8.18
2022-08-17T00:57:55.517Z,6.82
2022-08-17T01:00:29.587Z,7.20
2022-08-17T01:03:09.079Z,6.50
2022-08-17T01:05:42.732Z,8.55
2022-08-17T01:08:19.915Z,6.13
2022-08-17T01:11:00.380Z,5.18
2022-08-17T01:13:41.045Z,7.32
2022-08-17T01:16:18.950Z,5.80
2022-08-17T01:18:55.430Z,6.35
2022-08-17T01:21:33.904Z,5.85
2022-08-17T01:24:07.904Z,8.07
2022-08-17T01:26:41.199Z,6.70
2022-08-17T01:29:13.237Z,8.82
2022-08-17T01:31:48.737Z,3.03
2022-08-17T01:34:21.900Z,3.40
2022-08-17T01:36:53.244Z,6.43
2022-08-17T01:39:33.161Z,6.00
2022-08-17T01:42:10.006Z,5.15
2022-08-17T01:44:41.546Z,6.55
2022-08-17T01:47:12.625Z,6.03
2022-08-17T01:49:43.896Z,5.97
2022-08-17T01:52:16.088Z,6.85
2022-08-17T01:54:51.124Z,5.78
2022-08-17T01:57:22.372Z,10.68
2022-08-17T01:59:53.692Z,4.80
2022-08-17T02:02:30.339Z,3.55
2022-08-17T02:05:02.577Z,3.78
2022-08-17T02:07:33.383Z,7.72
2022-08-17T02:10:33.743Z,5.03
2022-08-17T02:13:06.473Z,5.85
2022-08-17T02:15:37.913Z,9.82
2022-08-17T02:18:10.202Z,7.30
2022-08-17T02:20:42.763Z,6.75
2022-08-17T02:23:15.805Z,6.88
2022-08-17T02:25:51.551Z,8.23
2022-08-17T02:28:22.407Z,6.63
2022-08-17T02:31:01.105Z,7.05
2022-08-17T02:33:42.611Z,5.22
2022-08-17T02:36:15.602Z,5.97
2022-08-17T02:38:46.738Z,5.47
2022-08-17T02:41:20.274Z,7.28
2022-08-17T02:43:51.435Z,5.82
2022-08-17T02:46:22.785Z,7.68
2022-08-17T02:48:53.589Z,8.38
2022-08-17T02:51:24.386Z,5.90
2022-08-17T02:54:38.940Z,6.13
2022-08-17T02:56:49.301Z,7.80
2022-08-17T02:59:20.193Z,5.53
2022-08-17T03:01:51.395Z,7.38
2022-08-17T03:04:22.235Z,6.85
2022-08-17T03:06:53.457Z,6.00
2022-08-17T03:09:24.629Z,7.75
2022-08-17T03:11:58.320Z,5.97
2022-08-17T03:14:29.350Z,6.40
2022-08-17T03:17:00.090Z,8.82
2022-08-17T03:19:31.350Z,5.95
2022-08-17T03:22:03.396Z,8.55
2022-08-17T03:24:54.183Z,7.55
2022-08-17T03:27:29.468Z,8.43
2022-08-17T03:30:00.592Z,7.78
2022-08-17T03:32:31.416Z,10.45
2022-08-17T03:35:03.721Z,8.23
2022-08-17T03:37:34.579Z,8.38
2022-08-17T03:40:07.984Z,8.63
2022-08-17T03:42:42.994Z,11.95
2022-08-17T03:45:16.688Z,10.18
2022-08-17T03:48:08.732Z,9.43
2022-08-17T03:50:51.816Z,12.50
2022-08-17T03:53:35.345Z,11.93
2022-08-17T03:56:20.022Z,11.68
2022-08-17T03:58:53.841Z,9.10
2022-08-17T04:01:24.867Z,10.07
2022-08-17T04:03:56.097Z,10.60
2022-08-17T04:06:26.858Z,9.85
2022-08-17T04:08:57.860Z,6.72
2022-08-17T04:11:28.621Z,7.22
2022-08-17T04:14:02.775Z,6.25
2022-08-17T04:16:34.381Z,7.63
2022-08-17T04:19:05.191Z,7.75
2022-08-17T04:21:36.582Z,7.30
2022-08-17T04:24:08.342Z,7.70
2022-08-17T04:26:54.092Z,7.40
2022-08-17T04:29:28.855Z,7.55
2022-08-17T04:32:24.833Z,8.93
2022-08-17T04:35:11.540Z,7.00
2022-08-17T04:37:42.426Z,8.70
2022-08-17T04:40:27.585Z,8.95
2022-08-17T04:43:04.829Z,10.27
2022-08-17T04:45:55.450Z,9.07
2022-08-17T04:48:36.651Z,10.15
2022-08-17T04:51:12.219Z,11.68
2022-08-17T04:53:45.494Z,9.50
2022-08-17T04:56:25.278Z,7.53
2022-08-17T04:58:58.227Z,8.43
2022-08-17T05:01:33.974Z,9.38
2022-08-17T05:04:21.430Z,9.07
2022-08-17T05:06:58.180Z,10.00
2022-08-17T05:09:29.404Z,11.73
2022-08-17T05:12:04.182Z,11.60
2022-08-17T05:14:35.012Z,11.57
2022-08-17T05:17:11.119Z,6.30
2022-08-17T05:19:42.564Z,10.68
2022-08-17T05:22:13.561Z,12.65
2022-08-17T05:24:53.953Z,12.75
2022-08-17T05:27:29.791Z,10.95
2022-08-17T05:30:06.880Z,11.32
2022-08-17T05:32:40.648Z,10.82
2022-08-17T05:35:12.325Z,10.93
2022-08-17T05:37:43.081Z,9.40
2022-08-17T05:40:15.164Z,11.07
2022-08-17T05:42:46.051Z,10.68
2022-08-17T05:45:46.042Z,11.68
2022-08-17T05:48:13.262Z,8.63
2022-08-17T05:50:51.812Z,9.52
2022-08-17T05:53:27.804Z,10.80
2022-08-17T05:56:29.226Z,11.37
2022-08-17T05:59:08.515Z,11.50
2022-08-17T06:01:47.889Z,9.23
2022-08-17T06:04:29.572Z,12.45
2022-08-17T06:07:10.599Z,9.82
2022-08-17T06:09:45.494Z,9.98
2022-08-17T06:12:32.096Z,10.68
2022-08-17T06:15:19.712Z,8.77
2022-08-17T06:17:50.587Z,12.57
2022-08-17T06:20:24.261Z,10.90
2022-08-17T06:23:06.151Z,10.50
2022-08-17T06:25:42.176Z,10.10
2022-08-17T06:28:16.856Z,7.47
2022-08-17T06:30:59.251Z,5.75
2022-08-17T06:33:37.117Z,4.05
2022-08-17T06:36:29.485Z,9.65
2022-08-17T06:39:10.633Z,8.95
2022-08-17T06:41:50.403Z,8.32
2022-08-17T06:44:42.207Z,3.25
2022-08-17T06:47:29.285Z,10.57
2022-08-17T06:50:11.912Z,11.05
2022-08-17T06:52:53.374Z,10.07
2022-08-17T06:55:37.266Z,11.13
2022-08-17T06:58:16.423Z,9.15
2022-08-17T07:00:50.984Z,9.05
2022-08-17T07:03:32.049Z,9.63
2022-08-17T07:06:07.940Z,8.70
2022-08-17T07:08:52.935Z,11.13
2022-08-17T07:11:30.371Z,10.35
2022-08-17T07:14:13.993Z,7.93
2022-08-17T07:16:52.017Z,9.88
2022-08-17T07:19:26.487Z,6.55
2022-08-17T07:22:06.395Z,4.05
2022-08-17T07:24:47.653Z,2.83
2022-08-17T07:27:22.475Z,5.45
2022-08-17T07:29:57.212Z,2.90
2022-08-17T07:32:32.907Z,6.32
2022-08-17T07:35:11.276Z,6.18
2022-08-17T07:37:44.439Z,9.25
2022-08-17T07:40:40.041Z,4.50
2022-08-17T07:43:29.369Z,5.63
2022-08-17T07:46:29.649Z,3.65
2022-08-17T07:49:18.903Z,7.20
2022-08-17T07:52:24.146Z,8.50
2022-08-17T07:54:55.054Z,8.65
2022-08-17T07:57:46.195Z,7.18
2022-08-17T08:00:31.663Z,8.70
2022-08-17T08:03:10.709Z,8.80
2022-08-17T08:05:52.887Z,7.43
2022-08-17T08:08:35.995Z,7.38
2022-08-17T08:11:11.704Z,6.25
2022-08-17T08:13:46.593Z,9.75
2022-08-17T08:16:29.788Z,7.72
2022-08-17T08:19:03.707Z,7.78
2022-08-17T08:21:49.490Z,8.63
2022-08-17T08:24:50.355Z,8.70
2022-08-17T08:27:35.932Z,6.80
2022-08-17T08:30:14.624Z,8.25
2022-08-17T08:33:09.907Z,7.93
2022-08-17T08:35:47.479Z,8.85
2022-08-17T08:38:27.424Z,9.88
2022-08-17T08:41:10.667Z,9.75
2022-08-17T08:43:53.272Z,3.25
2022-08-17T08:46:37.312Z,4.90
2022-08-17T08:50:05.795Z,3.33
2022-08-17T08:52:55.212Z,3.60
2022-08-17T08:55:35.927Z,5.25
2022-08-17T08:58:31.908Z,6.68
2022-08-17T09:01:03.347Z,5.20
2022-08-17T09:04:23.285Z,4.35
2022-08-17T09:07:05.133Z,6.10
2022-08-17T09:09:45.743Z,5.57
2022-08-17T09:12:29.526Z,6.72
2022-08-17T09:15:12.339Z,7.05
2022-08-17T09:18:03.490Z,6.68
2022-08-17T09:20:50.368Z,3.90
2022-08-17T09:23:33.821Z,4.53
2022-08-17T09:26:12.531Z,4.75
2022-08-17T09:28:48.534Z,5.53
2022-08-17T09:31:25.995Z,4.03
2022-08-17T09:34:02.526Z,3.42
2022-08-17T09:36:44.446Z,2.75
2022-08-17T09:39:20.493Z,4.53
2022-08-17T09:41:58.860Z,2.97
2022-08-17T09:44:39.165Z,3.15
2022-08-17T09:47:15.763Z,3.25
2022-08-17T09:49:53.683Z,3.72
2022-08-17T09:52:30.548Z,4.20
2022-08-17T09:57:50.716Z,4.50
2022-08-17T10:00:28.379Z,4.15
2022-08-17T10:03:20.213Z,6.07
2022-08-17T10:05:58.251Z,6.28
2022-08-17T10:08:39.442Z,4.55
2022-08-17T10:11:51.420Z,3.15
2022-08-17T10:14:36.421Z,3.30
2022-08-17T10:17:22.968Z,4.10
2022-08-17T10:20:02.215Z,3.45
2022-08-17T10:22:55.021Z,4.35
2022-08-17T10:25:54.562Z,3.22
2022-08-17T10:28:30.451Z,2.85
2022-08-17T10:31:32.986Z,2.95
2022-08-17T10:34:20.017Z,6.43
2022-08-17T10:36:58.697Z,3.15
2022-08-17T10:39:51.912Z,3.00
2022-08-17T10:42:32.834Z,4.57
2022-08-17T10:45:10.147Z,5.68
2022-08-17T10:50:51.171Z,5.60
2022-08-17T10:53:52.352Z,3.95
2022-08-17T10:56:40.163Z,4.72
2022-08-17T10:59:51.045Z,4.13
2022-08-17T11:02:28.381Z,3.83
2022-08-17T11:05:23.983Z,3.80
2022-08-17T11:08:20.800Z,9.32
2022-08-17T11:11:04.743Z,4.35
2022-08-17T11:13:45.635Z,3.47
2022-08-17T11:16:48.225Z,5.28
2022-08-17T11:19:43.757Z,5.05
2022-08-17T11:22:41.197Z,2.50
2022-08-17T11:25:19.946Z,4.07
2022-08-17T11:27:55.607Z,2.92
2022-08-17T11:30:48.864Z,3.47
2022-08-17T11:33:49.868Z,2.63
2022-08-17T11:36:32.760Z,2.38
2022-08-17T11:39:08.755Z,2.90
2022-08-17T11:41:51.547Z,2.22
2022-08-17T11:44:38.038Z,2.17
2022-08-17T11:47:29.568Z,1.63
2022-08-17T11:50:27.991Z,2.10
2022-08-17T11:53:02.083Z,2.15
2022-08-17T11:56:07.692Z,2.60
2022-08-17T11:58:46.371Z,2.05
2022-08-17T12:01:56.002Z,2.97
2022-08-17T12:04:33.009Z,2.40
2022-08-17T12:07:11.100Z,2.30
2022-08-17T12:09:48.445Z,3.22
2022-08-17T12:12:23.386Z,2.00
2022-08-17T12:15:10.022Z,1.77
2022-08-17T12:17:47.098Z,2.55
2022-08-17T12:20:28.221Z,2.45
2022-08-17T12:23:06.494Z,1.58
2022-08-17T12:25:46.504Z,1.85
2022-08-17T12:28:27.366Z,2.58
2022-08-17T12:31:03.069Z,1.33
2022-08-17T12:33:36.284Z,2.10
2022-08-17T12:36:12.977Z,2.10
2022-08-17T12:41:34.783Z,2.80
2022-08-17T12:44:09.892Z,1.60
2022-08-17T12:46:52.596Z,1.75
2022-08-17T12:49:29.371Z,2.38
2022-08-17T12:52:16.355Z,2.40
2022-08-17T12:54:57.119Z,2.88
2022-08-17T12:57:36.062Z,1.85
2022-08-17T13:00:16.171Z,2.85
2022-08-17T13:02:51.731Z,3.13
2022-08-17T13:05:30.932Z,2.53
2022-08-17T13:08:05.150Z,1.40
2022-08-17T13:10:38.822Z,2.92
2022-08-17T13:13:25.253Z,2.13
2022-08-17T13:15:59.057Z,2.70
2022-08-17T13:18:41.806Z,2.47
2022-08-17T13:21:22.503Z,2.33
2022-08-17T13:24:02.450Z,3.30
2022-08-17T13:26:36.791Z,2.38
2022-08-17T13:29:24.350Z,2.00
2022-08-17T13:32:04.714Z,2.25
2022-08-17T13:35:14.173Z,3.78
2022-08-17T13:37:38.325Z,2.42
2022-08-17T13:40:32.474Z,4.00
2022-08-17T13:43:03.779Z,4.20
2022-08-17T13:45:51.980Z,2.45
2022-08-17T13:48:27.834Z,3.80
2022-08-17T13:51:26.476Z,4.72
2022-08-17T13:54:23.148Z,2.55
2022-08-17T13:57:07.141Z,3.47
2022-08-17T13:59:54.655Z,3.58
2022-08-17T14:02:30.424Z,2.97
2022-08-17T14:05:06.781Z,3.55
2022-08-17T14:07:40.969Z,4.18
2022-08-17T14:10:16.469Z,2.10
2022-08-17T14:12:50.929Z,3.50
2022-08-17T14:15:56.330Z,5.15
2022-08-17T14:18:42.052Z,3.85
2022-08-17T14:21:13.201Z,3.17
2022-08-17T14:23:48.988Z,3.20
2022-08-17T14:26:26.423Z,3.97
2022-08-17T14:28:57.636Z,3.85
2022-08-17T14:31:31.865Z,2.80
2022-08-17T14:34:10.974Z,2.05
2022-08-17T14:36:48.449Z,3.75
2022-08-17T14:39:21.052Z,2.00
2022-08-17T14:41:53.347Z,1.92
2022-08-17T14:44:24.871Z,1.80
2022-08-17T14:46:56.383Z,2.67
2022-08-17T14:49:30.735Z,3.35
2022-08-17T14:52:02.924Z,2.92
2022-08-17T14:54:40.199Z,4.45
2022-08-17T14:57:26.049Z,2.75
2022-08-17T15:00:05.876Z,3.13
2022-08-17T15:02:49.072Z,4.35
2022-08-17T15:05:25.259Z,2.58
2022-08-17T15:07:56.932Z,2.08
2022-08-17T15:10:28.924Z,3.65
2022-08-17T15:13:00.799Z,3.15
2022-08-17T15:15:33.580Z,2.22
2022-08-17T15:18:05.128Z,2.90
2022-08-17T15:20:39.247Z,3.75
2022-08-17T15:23:15.813Z,3.05
2022-08-17T15:25:47.564Z,3.30
2022-08-17T15:28:19.127Z,2.42
2022-08-17T15:30:50.526Z,4.68
2022-08-17T15:33:24.600Z,3.13
2022-08-17T15:36:01.482Z,2.17
2022-08-17T15:38:39.418Z,3.03
2022-08-17T15:41:15.428Z,2.50
2022-08-17T15:43:47.632Z,2.30
2022-08-17T15:46:21.397Z,0.90
2022-08-17T15:48:55.189Z,1.58
2022-08-17T15:51:30.876Z,2.25
2022-08-17T15:54:18.735Z,3.10
2022-08-17T15:56:54.165Z,1.40
2022-08-17T15:59:25.186Z,2.00
2022-08-17T16:03:13.738Z,1.92
2022-08-17T16:04:48.752Z,2.15
2022-08-17T16:07:26.828Z,2.10
2022-08-17T16:09:58.174Z,2.45
2022-08-17T16:12:29.808Z,1.85
2022-08-17T16:15:01.343Z,3.13
2022-08-17T16:17:40.177Z,1.85
2022-08-17T16:20:20.108Z,1.75
2022-08-17T16:22:55.474Z,3.22
2022-08-17T16:25:49.714Z,2.33
2022-08-17T16:28:21.283Z,1.60
2022-08-17T16:30:53.009Z,2.53
2022-08-17T16:33:26.446Z,3.05
2022-08-17T16:36:00.666Z,2.15
2022-08-17T16:38:36.087Z,1.80
2022-08-17T16:41:09.780Z,1.75
2022-08-17T16:43:46.405Z,1.67
2022-08-17T16:46:21.774Z,1.65
2022-08-17T16:51:29.816Z,1.58
2022-08-17T16:54:05.058Z,2.95
2022-08-17T16:56:38.728Z,4.32
2022-08-17T16:59:21.160Z,4.10
2022-08-17T17:02:13.102Z,2.67
2022-08-17T17:04:50.622Z,4.88
2022-08-17T17:07:38.713Z,2.13
2022-08-17T17:10:19.104Z,2.45
2022-08-17T17:13:01.212Z,2.22
2022-08-17T17:15:46.061Z,2.15
2022-08-17T17:18:20.694Z,2.30
2022-08-17T17:20:58.145Z,2.38
2022-08-17T17:23:44.581Z,3.92
2022-08-17T17:26:35.205Z,2.53
2022-08-17T17:29:35.821Z,2.30
2022-08-17T17:32:28.503Z,1.80
2022-08-17T17:35:07.823Z,2.72
2022-08-17T17:37:42.405Z,2.53
2022-08-17T17:40:22.047Z,2.53
2022-08-17T17:43:14.524Z,2.88
2022-08-17T17:46:26.397Z,2.42
2022-08-17T17:48:53.002Z,3.38
2022-08-17T17:51:55.721Z,3.63
2022-08-17T17:54:39.755Z,3.58
2022-08-17T17:57:22.729Z,2.00
2022-08-17T18:00:03.987Z,2.25
2022-08-17T18:03:04.600Z,2.45
2022-08-17T18:05:55.833Z,1.77
2022-08-17T18:08:53.161Z,3.03
2022-08-17T18:11:40.301Z,2.67
2022-08-17T18:14:29.261Z,3.33
2022-08-17T18:17:05.557Z,3.22
2022-08-17T18:19:39.299Z,3.15
2022-08-17T18:22:17.054Z,4.50
2022-08-17T18:24:54.348Z,3.10
2022-08-17T18:27:31.884Z,2.42
2022-08-17T18:30:09.207Z,3.92
2022-08-17T18:32:46.867Z,1.60
2022-08-17T18:35:35.400Z,6.22
2022-08-17T18:38:23.459Z,3.20
2022-08-17T18:41:04.728Z,4.15
2022-08-17T18:43:52.903Z,5.95
2022-08-17T18:46:36.399Z,2.95
2022-08-17T18:49:29.432Z,3.72
2022-08-17T18:52:14.534Z,3.67
2022-08-17T18:55:05.949Z,4.65
2022-08-17T18:57:39.496Z,11.55
2022-08-17T19:00:20.583Z,4.00
2022-08-17T19:02:58.312Z,4.50
2022-08-17T19:05:37.640Z,4.45
2022-08-17T19:08:24.330Z,5.95
2022-08-17T19:10:58.786Z,3.53
2022-08-17T19:13:35.073Z,3.25
2022-08-17T19:16:15.427Z,3.30
2022-08-17T19:18:52.283Z,3.08
2022-08-17T19:21:30.846Z,1.90
2022-08-17T19:24:10.411Z,4.25
2022-08-17T19:26:55.381Z,4.32
2022-08-17T19:29:34.981Z,3.95
2022-08-17T19:32:07.090Z,3.10
2022-08-17T19:34:42.167Z,5.13
2022-08-17T19:37:26.931Z,3.90
2022-08-17T19:40:07.285Z,5.80
2022-08-17T19:42:48.191Z,6.20
2022-08-17T19:45:47.006Z,2.67
2022-08-17T19:48:29.396Z,1.67
2022-08-17T19:51:07.884Z,2.70
2022-08-17T19:54:07.250Z,3.28
2022-08-17T19:56:47.157Z,2.72
2022-08-17T19:59:27.404Z,4.20
2022-08-17T20:02:21.292Z,2.42
2022-08-17T20:04:56.941Z,4.80
2022-08-17T20:07:33.110Z,1.92
2022-08-17T20:10:12.813Z,3.72
2022-08-17T20:12:47.578Z,3.75
2022-08-17T20:15:28.128Z,3.97
2022-08-17T20:18:03.464Z,4.03
2022-08-17T20:20:41.094Z,1.70
2022-08-17T20:23:17.320Z,5.47
2022-08-17T20:25:57.994Z,1.90
2022-08-17T20:28:31.527Z,4.60
2022-08-17T20:31:02.850Z,3.22
2022-08-17T20:33:37.068Z,3.53
2022-08-17T20:36:21.042Z,6.32
2022-08-17T20:38:55.557Z,6.13
2022-08-17T20:41:32.839Z,5.40
2022-08-17T20:44:09.037Z,4.28
2022-08-17T20:47:00.997Z,5.88
2022-08-17T20:49:50.727Z,6.70
2022-08-17T20:52:54.159Z,4.22
2022-08-17T20:55:53.535Z,4.10
2022-08-17T20:58:45.525Z,4.00
2022-08-17T21:01:24.641Z,5.55
2022-08-17T21:03:57.595Z,2.78
2022-08-17T21:06:29.141Z,4.43
2022-08-17T21:09:22.082Z,6.18
2022-08-17T21:12:05.523Z,6.47
2022-08-17T21:15:00.525Z,5.72
2022-08-17T21:17:42.820Z,8.68
2022-08-17T21:20:28.487Z,4.53
2022-08-17T21:23:23.101Z,9.23
2022-08-17T21:26:15.311Z,9.38
2022-08-17T21:29:29.904Z,9.52
2022-08-17T21:32:32.514Z,11.32
2022-08-17T21:35:27.029Z,14.93
2022-08-17T21:38:05.539Z,11.07
2022-08-17T21:40:38.642Z,12.32
2022-08-17T21:43:25.312Z,10.75
2022-08-17T21:46:09.826Z,12.68
2022-08-17T21:48:50.118Z,12.77
2022-08-17T21:51:29.143Z,12.40
2022-08-17T21:54:02.720Z,13.95
2022-08-17T21:56:36.878Z,11.23
2022-08-17T21:59:11.553Z,14.52
2022-08-17T22:01:43.939Z,12.73
2022-08-17T22:04:30.589Z,13.65
2022-08-17T22:07:03.497Z,14.98
2022-08-17T22:09:37.290Z,14.73
2022-08-17T22:12:12.270Z,19.52
2022-08-17T22:14:53.345Z,17.40
2022-08-17T22:17:28.381Z,5.55
2022-08-17T22:20:04.556Z,12.30
2022-08-17T22:23:02.159Z,15.98
2022-08-17T22:25:31.376Z,11.27
2022-08-17T22:28:03.801Z,4.65
2022-08-17T22:30:40.869Z,17.15
2022-08-17T22:33:34.769Z,15.75
2022-08-17T22:36:30.236Z,13.90
2022-08-17T22:39:03.753Z,21.08
2022-08-17T22:41:47.761Z,16.95
2022-08-17T22:44:23.400Z,20.42
2022-08-17T22:47:11.582Z,10.70
2022-08-17T22:49:53.290Z,18.77
2022-08-17T22:52:34.248Z,16.80
2022-08-17T22:55:23.389Z,6.03
2022-08-17T22:58:07.486Z,10.75
2022-08-17T23:00:43.330Z,19.17
2022-08-17T23:03:19.119Z,8.13
2022-08-17T23:06:07.155Z,16.10
2022-08-17T23:08:48.905Z,19.30
2022-08-17T23:11:20.172Z,12.40
2022-08-17T23:14:08.685Z,24.02
2022-08-17T23:16:40.775Z,19.27
2022-08-17T23:19:11.719Z,23.48
2022-08-17T23:21:45.023Z,14.05
2022-08-17T23:24:29.807Z,22.42
2022-08-17T23:27:00.959Z,20.23
2022-08-17T23:29:32.536Z,22.27
2022-08-17T23:32:04.977Z,23.42
2022-08-17T23:34:36.211Z,21.38
2022-08-17T23:37:07.509Z,22.25
2022-08-17T23:39:41.617Z,11.13
2022-08-17T23:42:14.525Z,8.63
2022-08-17T23:44:45.821Z,24.30
2022-08-17T23:47:16.855Z,23.27
2022-08-17T23:49:47.913Z,18.77
2022-08-17T23:52:19.060Z,23.45
2022-08-17T23:54:53.590Z,26.08
2022-08-17T23:57:33.530Z,26.00
